Time;durP1;ratioP1;P1;durP2;ratioP2;P2;SDS_P1;SDS_P2;PMS_P1;PMS_P2;Temp;Humidity;BMP_temperature;BMP_pressure;BME280_temperature;BME280_humidity;BME280_pressure;Samples;Min_cycle;Max_cycle;Signal;HPM_P1;HPM_P2
2023/05/29 00:00:21;;;;;;;;;;;;;;;16.17;76.09;94921.28;5135782;27;1029;-55
2023/05/29 00:02:47;;;;;;;;;;;;;;;16.19;75.85;94924.63;5135763;27;969;-54
2023/05/29 00:05:13;;;;;;;;;;;;;;;16.24;75.33;94923.16;5135521;27;1104;-55
2023/05/29 00:07:41;;;;;;;;;;;;;;;16.24;75.38;94923.16;5135146;27;2270;-54
2023/05/29 00:10:09;;;;;;;;;;;;;;;16.26;75.43;94923.81;5135880;27;1047;-55
2023/05/29 00:12:35;;;;;;;;;;;;;;;16.19;75.88;94921.91;5135796;27;985;-55
2023/05/29 00:15:03;;;;;;;;;;;;;;;16.14;75.99;94927.09;5135509;27;1065;-54
2023/05/29 00:17:31;;;;;;;;;;;;;;;16.13;75.92;94925.44;5135407;27;1056;-54
2023/05/29 00:19:58;;;;;;;;;;;;;;;16.08;76.92;94927.88;5135395;27;989;-54
2023/05/29 00:22:25;;;;;;;;;;;;;;;15.97;77.89;94931.16;5124463;27;3071;-54
2023/05/29 00:24:52;;;;;;;;;;;;;;;15.88;78.43;94932.34;5114822;28;1031;-54
2023/05/29 00:27:18;;;;;;;;;;;;;;;15.76;77.98;94926.69;5126134;27;1910;-54
2023/05/29 00:29:45;;;;;;;;;;;;;;;15.65;78.87;94922.66;5135256;27;1971;-54
2023/05/29 00:32:11;;;;;;;;;;;;;;;15.41;79.63;94930.16;5135136;27;989;-54
2023/05/29 00:34:37;;;;;;;;;;;;;;;15.24;80.40;94934.19;5135338;27;1027;-54
2023/05/29 00:37:03;;;;;;;;;;;;;;;15.19;81.46;94934.75;5134964;27;1045;-54
2023/05/29 00:39:29;;;;;;;;;;;;;;;15.38;80.20;94933.25;5134977;27;1105;-54
2023/05/29 00:41:56;;;;;;;;;;;;;;;15.51;79.58;94929.00;5135296;27;1044;-55
2023/05/29 00:44:22;;;;;;;;;;;;;;;15.57;78.95;94928.19;5133744;27;3063;-55
2023/05/29 00:46:49;;;;;;;;;;;;;;;15.63;78.67;94927.41;5114970;27;2814;-55
2023/05/29 00:49:16;;;;;;;;;;;;;;;15.69;78.83;94933.84;5114068;28;1982;-55
2023/05/29 00:51:43;;;;;;;;;;;;;;;15.74;78.23;94923.34;5114229;28;1286;-55
2023/05/29 00:54:11;;;;;;;;;;;;;;;15.52;79.32;94918.03;5114177;28;1053;-55
2023/05/29 00:56:38;;;;;;;;;;;;;;;15.26;80.26;94920.53;5114066;28;1079;-55
2023/05/29 00:59:05;;;;;;;;;;;;;;;15.14;81.45;94929.16;5114108;28;1970;-55
2023/05/29 01:01:32;;;;;;;;;;;;;;;15.08;82.25;94929.94;5114042;28;1108;-55
2023/05/29 01:04:00;;;;;;;;;;;;;;;15.03;81.83;94927.81;5114070;28;1078;-55
2023/05/29 01:06:26;;;;;;;;;;;;;;;15.14;81.10;94920.22;5113966;28;1194;-55
2023/05/29 01:08:52;;;;;;;;;;;;;;;15.04;81.60;94912.47;5114293;28;2007;-55
2023/05/29 01:11:31;;;;;;;;;;;;;;;15.06;81.31;94917.66;5113889;28;1041;-55
2023/05/29 01:13:59;;;;;;;;;;;;;;;15.01;81.92;94912.88;5113919;28;1112;-55
2023/05/29 01:16:30;;;;;;;;;;;;;;;15.10;80.91;94910.88;5113814;28;1051;-55
2023/05/29 01:19:24;;;;;;;;;;;;;;;15.28;80.99;94915.78;5113297;28;1074;-55
2023/05/29 01:21:53;;;;;;;;;;;;;;;15.29;81.25;94914.75;5114060;28;1039;-55
2023/05/29 01:24:18;;;;;;;;;;;;;;;15.28;80.41;94911.22;5113791;28;1025;-54
2023/05/29 01:26:54;;;;;;;;;;;;;;;15.41;79.72;94908.63;5120811;27;1178;-54
2023/05/29 01:29:23;;;;;;;;;;;;;;;15.46;79.57;94910.75;5134093;27;1905;-54
2023/05/29 01:31:49;;;;;;;;;;;;;;;15.51;79.27;94908.25;5134527;28;1024;-54
2023/05/29 01:34:15;;;;;;;;;;;;;;;15.55;78.87;94906.00;5134177;28;1104;-54
2023/05/29 01:36:41;;;;;;;;;;;;;;;15.52;79.27;94901.03;5134498;28;1032;-55
2023/05/29 01:39:08;;;;;;;;;;;;;;;15.60;78.72;94911.66;5130830;28;2476;-54
2023/05/29 01:41:34;;;;;;;;;;;;;;;15.61;78.79;94908.75;5125830;28;2741;-55
2023/05/29 01:44:03;;;;;;;;;;;;;;;15.55;78.95;94906.84;5134524;28;1047;-54
2023/05/29 01:46:29;;;;;;;;;;;;;;;15.49;79.76;94910.31;5134084;28;1061;-55
2023/05/29 01:48:55;;;;;;;;;;;;;;;15.41;80.37;94908.63;5134318;28;1993;-55
2023/05/29 01:51:21;;;;;;;;;;;;;;;15.37;80.31;94909.22;5134160;28;1253;-55
2023/05/29 01:53:47;;;;;;;;;;;;;;;15.39;79.58;94909.84;5133959;28;1297;-55
2023/05/29 01:56:13;;;;;;;;;;;;;;;15.36;79.45;94905.69;5133895;28;1330;-54
2023/05/29 01:58:40;;;;;;;;;;;;;;;15.27;79.98;94911.41;5134024;28;1108;-54
2023/05/29 02:01:07;;;;;;;;;;;;;;;15.22;80.05;94915.53;5134129;28;1001;-55
2023/05/29 02:03:33;;;;;;;;;;;;;;;15.30;80.33;94911.03;5133949;28;1037;-54
2023/05/29 02:06:00;;;;;;;;;;;;;;;15.40;79.59;94912.34;5133944;28;1296;-55
2023/05/29 02:08:26;;;;;;;;;;;;;;;15.47;79.48;94912.38;5133784;28;1909;-55
2023/05/29 02:10:52;;;;;;;;;;;;;;;15.42;79.40;94906.75;5134139;28;1016;-55
2023/05/29 02:13:18;;;;;;;;;;;;;;;15.34;79.73;94915.00;5133973;28;977;-55
2023/05/29 02:15:44;;;;;;;;;;;;;;;15.15;81.18;94913.81;5134021;28;980;-54
2023/05/29 02:18:14;;;;;;;;;;;;;;;15.12;80.66;94919.56;5134042;28;1036;-54
2023/05/29 02:20:40;;;;;;;;;;;;;;;15.17;80.74;94917.97;5133869;28;1039;-55
2023/05/29 02:23:08;;;;;;;;;;;;;;;15.29;80.25;94926.38;5133800;28;1016;-54
2023/05/29 02:25:35;;;;;;;;;;;;;;;15.28;80.13;94922.00;5133845;28;973;-54
2023/05/29 02:28:01;;;;;;;;;;;;;;;15.30;80.86;94919.94;5133798;28;1914;-54
2023/05/29 02:30:27;;;;;;;;;;;;;;;15.26;80.45;94907.06;5136104;27;1031;-54
2023/05/29 02:32:54;;;;;;;;;;;;;;;15.29;80.74;94915.59;5137654;27;1007;-54
2023/05/29 02:35:22;;;;;;;;;;;;;;;15.30;80.61;94911.03;5137365;27;1057;-55
2023/05/29 02:37:51;;;;;;;;;;;;;;;15.29;80.80;94917.44;5137390;27;1004;-54
2023/05/29 02:40:18;;;;;;;;;;;;;;;15.14;81.27;94920.22;5137167;27;1888;-54
2023/05/29 02:42:44;;;;;;;;;;;;;;;14.88;82.59;94927.06;5137336;27;1045;-55
2023/05/29 02:45:10;;;;;;;;;;;;;;;14.62;83.07;94925.75;5137527;27;1024;-54
2023/05/29 02:47:36;;;;;;;;;;;;;;;14.35;83.42;94929.19;5137324;27;1988;-54
2023/05/29 02:50:03;;;;;;;;;;;;;;;14.32;84.51;94919.59;5137143;27;1042;-55
2023/05/29 02:52:30;;;;;;;;;;;;;;;14.30;85.30;94931.59;5137103;27;1123;-54
2023/05/29 02:54:56;;;;;;;;;;;;;;;14.32;85.71;94937.59;5137016;27;1226;-54
2023/05/29 02:57:22;;;;;;;;;;;;;;;14.28;85.71;94942.53;5137141;27;1036;-54
2023/05/29 02:59:48;;;;;;;;;;;;;;;14.20;85.81;94932.72;5137056;27;1124;-54
2023/05/29 03:02:14;;;;;;;;;;;;;;;13.88;85.05;94930.47;5136912;27;1045;-54
2023/05/29 03:04:40;;;;;;;;;;;;;;;13.50;87.06;94925.19;5136934;27;1984;-54
2023/05/29 03:07:09;;;;;;;;;;;;;;;13.70;88.05;94923.63;5136816;27;2003;-55
2023/05/29 03:09:35;;;;;;;;;;;;;;;14.11;86.69;94920.41;5136925;27;1906;-54
2023/05/29 03:12:01;;;;;;;;;;;;;;;14.45;85.42;94924.31;5136747;27;1089;-55
2023/05/29 03:14:27;;;;;;;;;;;;;;;14.78;84.11;94926.56;5136901;27;1032;-54
2023/05/29 03:16:54;;;;;;;;;;;;;;;14.90;83.26;94933.06;5136642;27;1048;-55
2023/05/29 03:19:20;;;;;;;;;;;;;;;15.05;82.61;94937.56;5136648;27;1036;-54
2023/05/29 03:21:46;;;;;;;;;;;;;;;15.21;82.09;94939.97;5136565;27;1058;-54
2023/05/29 03:24:15;;;;;;;;;;;;;;;14.99;83.19;94950.75;5136661;27;969;-54
2023/05/29 03:26:41;;;;;;;;;;;;;;;14.42;83.93;94948.91;5136662;27;1252;-54
2023/05/29 03:29:07;;;;;;;;;;;;;;;14.29;84.61;94948.75;5136334;27;1990;-55
2023/05/29 03:31:33;;;;;;;;;;;;;;;14.28;84.74;94942.53;5136394;27;1104;-55
2023/05/29 03:33:59;;;;;;;;;;;;;;;14.42;85.40;94951.59;5136415;27;985;-53
2023/05/29 03:36:26;;;;;;;;;;;;;;;14.71;84.63;94953.38;5136193;27;1053;-54
2023/05/29 03:38:52;;;;;;;;;;;;;;;15.08;83.59;94962.25;5136386;27;965;-53
2023/05/29 03:41:18;;;;;;;;;;;;;;;15.37;82.50;94958.53;5135308;27;1047;-54
2023/05/29 03:43:44;;;;;;;;;;;;;;;15.61;81.70;94961.78;5136378;27;1023;-54
2023/05/29 03:46:10;;;;;;;;;;;;;;;15.77;81.50;94966.91;5117987;27;1001;-54
2023/05/29 03:48:36;;;;;;;;;;;;;;;15.95;81.21;94955.63;5136048;27;1990;-54
2023/05/29 03:51:02;;;;;;;;;;;;;;;15.93;79.95;94970.31;5135930;27;1190;-54
2023/05/29 03:53:28;;;;;;;;;;;;;;;15.72;81.66;94973.91;5136113;27;977;-54
2023/05/29 03:55:54;;;;;;;;;;;;;;;15.67;81.39;94970.97;5135606;27;1182;-54
2023/05/29 03:58:20;;;;;;;;;;;;;;;15.59;81.62;94974.63;5135753;27;1061;-53
2023/05/29 04:00:46;;;;;;;;;;;;;;;15.53;82.04;94983.50;5135916;27;973;-53
2023/05/29 04:03:12;;;;;;;;;;;;;;;15.52;81.92;94979.16;5135928;27;971;-53
2023/05/29 04:05:38;;;;;;;;;;;;;;;15.65;81.37;94983.81;5135809;27;985;-54
2023/05/29 04:08:04;;;;;;;;;;;;;;;15.69;81.95;94979.69;5135780;27;1989;-54
2023/05/29 04:10:33;;;;;;;;;;;;;;;15.71;82.00;94983.88;5135536;27;1053;-53
2023/05/29 04:13:00;;;;;;;;;;;;;;;15.71;82.26;94991.13;5135841;27;1036;-54
2023/05/29 04:15:26;;;;;;;;;;;;;;;15.66;82.00;94986.31;5135532;27;1024;-55
2023/05/29 04:17:52;;;;;;;;;;;;;;;15.84;81.65;94980.47;5135532;27;1000;-55
2023/05/29 04:20:18;;;;;;;;;;;;;;;16.08;81.46;94986.38;5135298;27;1017;-54
2023/05/29 04:22:44;;;;;;;;;;;;;;;16.19;80.35;94999.31;5117322;27;968;-54
2023/05/29 04:25:10;;;;;;;;;;;;;;;16.31;80.33;94999.56;5135163;27;1103;-54
2023/05/29 04:27:37;;;;;;;;;;;;;;;16.58;78.36;95001.38;5135236;27;1913;-54
2023/05/29 04:30:06;;;;;;;;;;;;;;;17.00;76.70;95008.56;5135247;27;1065;-54
2023/05/29 04:32:36;;;;;;;;;;;;;;;17.42;75.19;95014.66;5135379;27;961;-54
2023/05/29 04:35:02;;;;;;;;;;;;;;;17.73;75.50;95014.84;5135114;27;2001;-54
2023/05/29 04:37:29;;;;;;;;;;;;;;;17.73;76.25;95014.84;5135113;27;996;-54
2023/05/29 04:39:56;;;;;;;;;;;;;;;17.37;77.03;95015.28;5135338;27;1230;-54
2023/05/29 04:42:22;;;;;;;;;;;;;;;16.81;79.40;95024.50;5135244;27;1004;-54
2023/05/29 04:44:49;;;;;;;;;;;;;;;17.14;79.51;95023.78;5135051;27;969;-55
2023/05/29 04:47:15;;;;;;;;;;;;;;;17.83;77.21;95030.69;5134802;27;1052;-54
2023/05/29 04:49:41;;;;;;;;;;;;;;;17.98;75.14;95022.34;5134767;27;1906;-54
2023/05/29 04:52:07;;;;;;;;;;;;;;;18.12;75.37;95024.00;5134771;27;1027;-55
2023/05/29 04:54:34;;;;;;;;;;;;;;;18.24;72.73;95031.47;5134677;27;1082;-54
2023/05/29 04:57:00;;;;;;;;;;;;;;;18.12;73.32;95023.19;5135171;27;1009;-54
2023/05/29 04:59:26;;;;;;;;;;;;;;;18.13;74.63;95025.66;5134688;27;976;-55
2023/05/29 05:01:52;;;;;;;;;;;;;;;18.60;71.78;95024.72;5134670;27;1100;-54
2023/05/29 05:04:18;;;;;;;;;;;;;;;18.78;71.24;95034.84;5134522;27;1112;-54
2023/05/29 05:06:44;;;;;;;;;;;;;;;18.62;73.62;95036.16;5134547;27;1045;-54
2023/05/29 05:09:10;;;;;;;;;;;;;;;18.38;74.77;95035.81;5134404;27;1913;-55
2023/05/29 05:11:36;;;;;;;;;;;;;;;18.04;75.16;95045.88;5134546;27;1108;-54
2023/05/29 05:14:03;;;;;;;;;;;;;;;17.71;76.85;95041.28;5116366;27;1052;-54
2023/05/29 05:16:29;;;;;;;;;;;;;;;17.63;78.41;95041.50;5134678;27;1017;-55
2023/05/29 05:18:55;;;;;;;;;;;;;;;17.59;78.40;95045.66;5134417;27;1150;-54
2023/05/29 05:21:21;;;;;;;;;;;;;;;17.59;78.84;95042.13;5134243;27;1057;-54
2023/05/29 05:23:47;;;;;;;;;;;;;;;17.65;78.37;95046.69;5134303;27;1902;-55
2023/05/29 05:26:13;;;;;;;;;;;;;;;17.79;77.71;95044.81;5134442;27;1169;-55
2023/05/29 05:28:39;;;;;;;;;;;;;;;17.75;77.72;95045.22;5134307;27;1913;-55
2023/05/29 05:31:05;;;;;;;;;;;;;;;17.69;78.67;95043.34;5134340;28;992;-55
2023/05/29 05:33:31;;;;;;;;;;;;;;;17.69;78.55;95046.06;5134130;28;1092;-55
2023/05/29 05:35:57;;;;;;;;;;;;;;;17.68;79.34;95041.72;5134207;28;1029;-55
2023/05/29 05:38:23;;;;;;;;;;;;;;;17.76;78.74;95041.50;5133358;28;1650;-54
2023/05/29 05:40:49;;;;;;;;;;;;;;;17.84;78.11;95037.78;5134066;28;1037;-54
2023/05/29 05:43:15;;;;;;;;;;;;;;;17.84;78.08;95028.81;5133431;28;1112;-54
2023/05/29 05:45:42;;;;;;;;;;;;;;;18.01;77.84;95046.28;5133783;28;1020;-54
2023/05/29 05:48:08;;;;;;;;;;;;;;;18.08;77.26;95047.13;5132755;28;1905;-54
2023/05/29 05:50:34;;;;;;;;;;;;;;;18.18;77.63;95045.88;5115875;28;996;-54
2023/05/29 05:53:00;;;;;;;;;;;;;;;18.25;76.66;95038.53;5133844;28;992;-54
2023/05/29 05:55:27;;;;;;;;;;;;;;;18.34;76.38;95043.53;5133747;28;1326;-54
2023/05/29 05:57:55;;;;;;;;;;;;;;;18.48;75.37;95038.91;5134254;28;957;-54
2023/05/29 06:00:22;;;;;;;;;;;;;;;18.63;74.58;95035.94;5133843;28;1045;-54
2023/05/29 06:02:48;;;;;;;;;;;;;;;18.56;73.18;95037.03;5133853;28;992;-54
2023/05/29 06:05:15;;;;;;;;;;;;;;;18.64;74.76;95036.78;5135970;27;1175;-54
2023/05/29 06:07:41;;;;;;;;;;;;;;;18.66;74.55;95045.50;5137722;27;2000;-54
2023/05/29 06:10:07;;;;;;;;;;;;;;;18.73;73.81;95040.91;5138047;27;1072;-54
2023/05/29 06:12:34;;;;;;;;;;;;;;;18.76;74.19;95035.03;5137743;27;1107;-54
2023/05/29 06:15:00;;;;;;;;;;;;;;;18.91;74.53;95043.78;5137773;27;969;-54
2023/05/29 06:17:26;;;;;;;;;;;;;;;18.97;74.52;95050.22;5137609;27;1047;-53
2023/05/29 06:19:52;;;;;;;;;;;;;;;19.06;73.51;95043.47;5137932;27;1031;-54
2023/05/29 06:22:18;;;;;;;;;;;;;;;19.15;73.09;95037.81;5137427;27;1210;-54
2023/05/29 06:24:44;;;;;;;;;;;;;;;19.24;72.52;95042.75;5137840;27;989;-54
2023/05/29 06:27:10;;;;;;;;;;;;;;;19.16;73.33;95044.88;5137556;27;1158;-54
2023/05/29 06:29:36;;;;;;;;;;;;;;;19.21;71.94;95043.19;5137499;27;1890;-53
2023/05/29 06:32:02;;;;;;;;;;;;;;;19.20;72.36;95046.13;5137435;27;964;-53
2023/05/29 06:34:28;;;;;;;;;;;;;;;19.10;72.76;95050.16;5137635;27;1028;-54
2023/05/29 06:36:54;;;;;;;;;;;;;;;19.17;72.83;95046.56;5137298;27;1067;-54
2023/05/29 06:39:21;;;;;;;;;;;;;;;19.33;72.98;95039.78;5137516;27;980;-53
2023/05/29 06:41:46;;;;;;;;;;;;;;;19.78;72.27;95042.41;5134984;27;2515;-54
2023/05/29 06:44:12;;;;;;;;;;;;;;;19.83;71.30;95048.84;5136787;27;1049;-55
2023/05/29 06:46:38;;;;;;;;;;;;;;;19.92;71.87;95046.69;5137526;27;1004;-54
2023/05/29 06:49:04;;;;;;;;;;;;;;;20.09;70.16;95055.09;5137339;27;1909;-55
2023/05/29 06:51:32;;;;;;;;;;;;;;;20.55;68.08;95039.41;5137316;27;988;-54
2023/05/29 06:53:58;;;;;;;;;;;;;;;20.76;67.30;95040.84;5137145;27;1032;-55
2023/05/29 06:56:24;;;;;;;;;;;;;;;21.01;66.85;95038.03;5136870;27;1265;-54
2023/05/29 06:58:50;;;;;;;;;;;;;;;21.02;63.82;95037.00;5137055;27;1013;-54
2023/05/29 07:01:16;;;;;;;;;;;;;;;20.68;66.92;95031.13;5136833;27;1346;-54
2023/05/29 07:03:43;;;;;;;;;;;;;;;20.36;67.71;95039.38;5136929;27;1076;-55
2023/05/29 07:06:08;;;;;;;;;;;;;;;20.48;67.26;95040.28;5137219;27;985;-55
2023/05/29 07:08:34;;;;;;;;;;;;;;;21.37;65.37;95034.38;5136235;27;1921;-55
2023/05/29 07:11:01;;;;;;;;;;;;;;;22.30;62.71;95036.75;5136642;27;1999;-55
2023/05/29 07:13:27;;;;;;;;;;;;;;;22.43;61.03;95039.22;5136541;27;1057;-55
2023/05/29 07:15:53;;;;;;;;;;;;;;;21.99;63.07;95028.66;5136465;27;1032;-54
2023/05/29 07:18:19;;;;;;;;;;;;;;;21.71;61.24;95031.22;5136751;27;1044;-55
2023/05/29 07:20:45;;;;;;;;;;;;;;;21.95;61.88;95024.75;5136790;27;1060;-55
2023/05/29 07:23:11;;;;;;;;;;;;;;;22.11;62.74;95020.47;5136384;27;1112;-55
2023/05/29 07:25:37;;;;;;;;;;;;;;;22.76;58.78;95018.66;5136478;27;977;-55
2023/05/29 07:28:03;;;;;;;;;;;;;;;23.21;58.78;95019.88;5136278;27;1917;-55
2023/05/29 07:30:29;;;;;;;;;;;;;;;23.26;58.41;95022.69;5136182;27;1051;-55
2023/05/29 07:32:55;;;;;;;;;;;;;;;23.53;56.92;95028.38;5136277;27;1057;-55
2023/05/29 07:35:21;;;;;;;;;;;;;;;23.77;54.53;95034.50;5136141;27;1115;-55
2023/05/29 07:37:49;;;;;;;;;;;;;;;23.89;55.13;95024.41;5136354;27;1027;-55
2023/05/29 07:40:15;;;;;;;;;;;;;;;24.12;53.65;95033.50;5136101;27;1032;-56
2023/05/29 07:42:41;;;;;;;;;;;;;;;24.19;53.66;95023.25;5118197;27;938;-55
2023/05/29 07:45:07;;;;;;;;;;;;;;;24.36;53.74;95031.41;5136218;27;997;-55
2023/05/29 07:47:33;;;;;;;;;;;;;;;24.33;54.44;95021.78;5136187;27;989;-55
2023/05/29 07:49:59;;;;;;;;;;;;;;;24.50;53.86;95015.47;5136149;27;1918;-55
2023/05/29 07:52:25;;;;;;;;;;;;;;;24.22;53.71;95020.00;5136005;27;972;-55
2023/05/29 07:54:52;;;;;;;;;;;;;;;24.19;53.15;95019.66;5135737;27;1087;-55
2023/05/29 07:57:18;;;;;;;;;;;;;;;24.20;54.64;95019.41;5135836;27;1043;-55
2023/05/29 07:59:44;;;;;;;;;;;;;;;24.24;55.13;95017.84;5135663;27;1061;-54
2023/05/29 08:02:10;;;;;;;;;;;;;;;24.35;55.33;95018.81;5135535;27;2543;-55
2023/05/29 08:04:36;;;;;;;;;;;;;;;24.51;53.56;95017.13;5134493;27;2946;-55
2023/05/29 08:07:05;;;;;;;;;;;;;;;24.38;54.34;95006.56;5135791;27;1142;-55
2023/05/29 08:09:32;;;;;;;;;;;;;;;24.49;54.75;95002.88;5135461;27;1913;-55
2023/05/29 08:12:00;;;;;;;;;;;;;;;24.76;54.53;95000.28;5135441;27;1203;-55
2023/05/29 08:14:26;;;;;;;;;;;;;;;24.98;55.01;95005.75;5135349;27;1065;-55
2023/05/29 08:16:52;;;;;;;;;;;;;;;25.22;50.92;95003.56;5135718;27;981;-55
2023/05/29 08:19:18;;;;;;;;;;;;;;;25.00;52.54;95003.56;5135204;27;1105;-55
2023/05/29 08:21:44;;;;;;;;;;;;;;;24.19;53.64;95003.28;5135357;27;1056;-55
2023/05/29 08:24:10;;;;;;;;;;;;;;;24.34;54.67;95008.97;5135193;27;1266;-55
2023/05/29 08:26:36;;;;;;;;;;;;;;;24.71;52.62;95006.50;5135187;27;1153;-55
2023/05/29 08:29:02;;;;;;;;;;;;;;;25.19;53.33;95000.50;5134585;27;1910;-55
2023/05/29 08:31:29;;;;;;;;;;;;;;;25.69;52.75;95002.97;5135351;27;1051;-55
2023/05/29 08:33:56;;;;;;;;;;;;;;;26.17;48.29;95005.88;5135257;27;1052;-56
2023/05/29 08:36:22;;;;;;;;;;;;;;;26.19;50.63;95003.69;5135164;27;1399;-55
2023/05/29 08:38:48;;;;;;;;;;;;;;;25.83;49.21;95000.63;5135256;27;1047;-55
2023/05/29 08:41:20;;;;;;;;;;;;;;;25.79;47.53;95001.44;5134837;27;1277;-54
2023/05/29 08:43:47;;;;;;;;;;;;;;;24.88;51.56;94986.50;5134037;27;2224;-55
2023/05/29 08:46:13;;;;;;;;;;;;;;;25.04;50.96;94988.34;5117317;28;2892;-55
2023/05/29 08:48:40;;;;;;;;;;;;;;;25.43;50.53;94988.22;5114516;28;1913;-55
2023/05/29 08:51:07;;;;;;;;;;;;;;;25.61;51.63;94986.19;5114162;28;1049;-55
2023/05/29 08:53:33;;;;;;;;;;;;;;;26.15;48.82;94980.66;5114387;28;1029;-55
2023/05/29 08:55:59;;;;;;;;;;;;;;;26.14;48.66;94978.16;5114010;28;1111;-55
2023/05/29 08:58:26;;;;;;;;;;;;;;;26.38;47.48;94979.41;5113769;28;1029;-55
2023/05/29 09:00:52;;;;;;;;;;;;;;;26.65;46.71;94984.84;5114284;28;969;-55
2023/05/29 09:03:19;;;;;;;;;;;;;;;25.95;49.16;94975.00;5114141;28;1035;-56
2023/05/29 09:05:45;;;;;;;;;;;;;;;25.70;50.34;94984.63;5113961;28;1045;-56
2023/05/29 09:08:12;;;;;;;;;;;;;;;25.38;48.78;94982.69;5113816;28;1909;-56
2023/05/29 09:10:39;;;;;;;;;;;;;;;25.00;50.34;94978.97;5113948;28;1044;-56
2023/05/29 09:13:05;;;;;;;;;;;;;;;25.04;51.00;94987.47;5095766;28;1029;-55
2023/05/29 09:15:31;;;;;;;;;;;;;;;25.50;49.95;94977.06;5114069;28;977;-55
2023/05/29 09:17:57;;;;;;;;;;;;;;;25.46;48.09;94975.91;5114037;28;1061;-55
2023/05/29 09:20:24;;;;;;;;;;;;;;;25.31;48.17;94963.75;5095706;28;1096;-56
2023/05/29 09:22:54;;;;;;;;;;;;;;;25.22;50.08;94958.97;5113840;28;1121;-55
2023/05/29 09:25:22;;;;;;;;;;;;;;;25.37;50.79;94969.28;5113659;28;1056;-55
2023/05/29 09:27:50;;;;;;;;;;;;;;;25.89;50.22;94969.44;5129439;27;1922;-55
2023/05/29 09:30:30;;;;;;;;;;;;;;;26.26;47.69;94976.06;5134126;27;1963;-55
2023/05/29 09:32:56;;;;;;;;;;;;;;;26.03;48.42;94966.31;5134228;28;1088;-55
2023/05/29 09:35:22;;;;;;;;;;;;;;;25.18;49.84;94972.34;5134327;28;1711;-54
2023/05/29 09:37:50;;;;;;;;;;;;;;;24.58;50.03;94962.31;5134175;28;1100;-55
2023/05/29 09:40:16;;;;;;;;;;;;;;;24.30;50.89;94966.84;5136080;27;1043;-54
2023/05/29 09:42:42;;;;;;;;;;;;;;;24.14;52.43;94963.06;5138632;27;976;-55
2023/05/29 09:45:08;;;;;;;;;;;;;;;23.99;51.46;94971.84;5138342;27;1061;-55
2023/05/29 09:47:34;;;;;;;;;;;;;;;23.90;52.65;94956.97;5138325;27;2807;-55
2023/05/29 09:50:01;;;;;;;;;;;;;;;23.92;52.09;94955.66;5138189;27;2144;-56
2023/05/29 09:52:30;;;;;;;;;;;;;;;23.80;51.73;94954.91;5138401;27;1044;-56
2023/05/29 09:54:56;;;;;;;;;;;;;;;23.74;52.27;94951.22;5138059;27;2005;-56
2023/05/29 09:57:23;;;;;;;;;;;;;;;24.49;49.85;94948.22;5154129;27;1037;-56
2023/05/29 09:59:53;;;;;;;;;;;;;;;25.06;46.99;94953.34;5120037;27;1666;-56
2023/05/29 10:02:19;;;;;;;;;;;;;;;25.71;48.84;94947.97;5138176;27;1036;-54
2023/05/29 10:04:45;;;;;;;;;;;;;;;25.94;46.66;94951.47;5138114;27;988;-54
2023/05/29 10:07:20;;;;;;;;;;;;;;;25.81;48.12;94939.00;5137905;27;1004;-54
2023/05/29 10:09:50;;;;;;;;;;;;;;;25.59;46.89;94944.56;5137852;27;1902;-54
2023/05/29 10:12:20;;;;;;;;;;;;;;;25.90;45.55;94945.66;5138118;27;1047;-55
2023/05/29 10:14:48;;;;;;;;;;;;;;;26.05;45.14;94937.56;5137871;27;1036;-55
2023/05/29 10:17:15;;;;;;;;;;;;;;;26.27;44.25;94937.44;5137821;27;1064;-55
2023/05/29 10:19:42;;;;;;;;;;;;;;;26.33;46.26;94923.75;5137760;27;980;-55
2023/05/29 10:22:09;;;;;;;;;;;;;;;26.53;46.08;94929.34;5137675;27;1093;-55
2023/05/29 10:24:36;;;;;;;;;;;;;;;26.68;46.71;94925.88;5137948;27;1028;-55
2023/05/29 10:27:03;;;;;;;;;;;;;;;26.68;45.53;94929.44;5137468;27;1212;-55
2023/05/29 10:29:35;;;;;;;;;;;;;;;26.64;43.13;94927.53;5137547;27;1917;-55
2023/05/29 10:32:06;;;;;;;;;;;;;;;26.32;44.09;94919.38;5137583;27;1029;-55
2023/05/29 10:34:53;;;;;;;;;;;;;;;26.15;44.81;94914.88;5137326;27;1044;-55
2023/05/29 10:37:19;;;;;;;;;;;;;;;26.47;44.69;94913.97;5137543;27;1017;-55
2023/05/29 10:39:45;;;;;;;;;;;;;;;26.34;43.58;94918.00;5137673;27;1036;-55
2023/05/29 10:42:31;;;;;;;;;;;;;;;26.51;42.24;94919.75;5137030;27;1357;-55
2023/05/29 10:44:57;;;;;;;;;;;;;;;26.65;44.60;94910.81;5137230;27;1071;-55
2023/05/29 10:47:23;;;;;;;;;;;;;;;26.53;45.57;94907.41;5137385;27;1012;-55
2023/05/29 10:49:50;;;;;;;;;;;;;;;26.39;41.65;94914.47;5137179;27;1909;-55
2023/05/29 10:52:18;;;;;;;;;;;;;;;26.71;43.65;94910.81;5136823;27;1044;-55
2023/05/29 10:54:51;;;;;;;;;;;;;;;26.76;43.99;94905.34;5137156;27;1152;-55
2023/05/29 10:57:17;;;;;;;;;;;;;;;26.61;42.88;94903.38;5136995;27;1015;-55
2023/05/29 10:59:44;;;;;;;;;;;;;;;26.35;42.56;94908.72;5137316;27;1125;-55
2023/05/29 11:02:11;;;;;;;;;;;;;;;26.33;42.54;94904.56;5137060;27;957;-55
2023/05/29 11:04:37;;;;;;;;;;;;;;;26.09;43.57;94899.53;5137037;27;1040;-55
2023/05/29 11:07:06;;;;;;;;;;;;;;;25.72;45.26;94892.09;5137124;27;1047;-55
2023/05/29 11:09:37;;;;;;;;;;;;;;;25.52;45.66;94879.94;5136962;27;1906;-55
2023/05/29 11:12:09;;;;;;;;;;;;;;;25.89;47.04;94881.00;5136596;27;1232;-55
2023/05/29 11:14:44;;;;;;;;;;;;;;;26.21;46.29;94882.88;5136922;27;1040;-55
2023/05/29 11:17:28;;;;;;;;;;;;;;;26.57;46.93;94885.78;5136836;27;1073;-55
2023/05/29 11:19:55;;;;;;;;;;;;;;;26.42;44.59;94892.81;5137013;27;957;-55
2023/05/29 11:22:25;;;;;;;;;;;;;;;26.08;43.71;94884.16;5136519;27;1044;-55
2023/05/29 11:24:52;;;;;;;;;;;;;;;25.97;44.75;94880.56;5136798;27;965;-56
2023/05/29 11:27:18;;;;;;;;;;;;;;;25.79;43.81;94881.75;5136102;27;1875;-55
2023/05/29 11:29:45;;;;;;;;;;;;;;;25.68;43.99;94880.03;5136508;27;1914;-55
2023/05/29 11:32:14;;;;;;;;;;;;;;;25.58;43.99;94882.72;5136421;27;1020;-56
2023/05/29 11:34:41;;;;;;;;;;;;;;;25.27;43.00;94877.81;5136333;27;1089;-55
2023/05/29 11:37:07;;;;;;;;;;;;;;;25.05;44.37;94872.38;5136001;27;1203;-55
2023/05/29 11:39:36;;;;;;;;;;;;;;;25.30;45.71;94866.31;5136437;27;1035;-55
2023/05/29 11:42:02;;;;;;;;;;;;;;;25.54;45.00;94867.91;5136388;27;846;-56
2023/05/29 11:44:28;;;;;;;;;;;;;;;25.55;42.35;94866.81;5136278;27;977;-56
2023/05/29 11:47:05;;;;;;;;;;;;;;;25.76;44.24;94862.28;5136480;27;946;-56
2023/05/29 11:49:33;;;;;;;;;;;;;;;26.01;45.09;94861.66;5134862;27;2015;-56
2023/05/29 11:52:06;;;;;;;;;;;;;;;26.13;42.92;94865.03;5135818;27;1037;-55
2023/05/29 11:54:33;;;;;;;;;;;;;;;26.19;44.63;94861.22;5135714;27;1071;-56
2023/05/29 11:57:00;;;;;;;;;;;;;;;25.54;44.62;94859.69;5136220;27;1012;-56
2023/05/29 11:59:28;;;;;;;;;;;;;;;25.13;45.18;94858.22;5135453;27;1032;-56
2023/05/29 12:01:54;;;;;;;;;;;;;;;24.80;46.40;94859.28;5135061;27;1027;-56
2023/05/29 12:04:20;;;;;;;;;;;;;;;24.47;46.71;94862.94;5135206;27;1101;-55
2023/05/29 12:06:46;;;;;;;;;;;;;;;24.06;48.38;94863.28;5136070;27;956;-55
2023/05/29 12:09:28;;;;;;;;;;;;;;;23.43;50.39;94865.34;5135888;27;1990;-55
2023/05/29 12:12:01;;;;;;;;;;;;;;;22.86;53.23;94865.41;5135701;27;965;-55
2023/05/29 12:14:27;;;;;;;;;;;;;;;22.41;53.68;94861.59;5135611;27;1100;-55
2023/05/29 12:16:53;;;;;;;;;;;;;;;22.30;57.04;94859.72;5135474;27;1294;-55
2023/05/29 12:19:19;;;;;;;;;;;;;;;22.26;56.43;94873.00;5135441;27;1053;-55
2023/05/29 12:21:45;;;;;;;;;;;;;;;22.25;58.78;94870.47;5135455;27;1041;-56
2023/05/29 12:24:11;;;;;;;;;;;;;;;22.04;61.13;94870.03;5135532;27;988;-55
2023/05/29 12:26:38;;;;;;;;;;;;;;;21.89;61.90;94869.72;5135298;27;1271;-56
2023/05/29 12:29:07;;;;;;;;;;;;;;;21.76;60.56;94874.34;5135315;27;1910;-56
2023/05/29 12:31:33;;;;;;;;;;;;;;;21.62;62.05;94868.31;5135467;27;1035;-56
2023/05/29 12:34:08;;;;;;;;;;;;;;;22.02;61.90;94862.13;5135553;27;1036;-56
2023/05/29 12:36:34;;;;;;;;;;;;;;;22.57;62.11;94866.25;5135168;27;1865;-56
2023/05/29 12:39:06;;;;;;;;;;;;;;;22.74;60.27;94862.75;5117163;27;1025;-56
2023/05/29 12:41:35;;;;;;;;;;;;;;;22.73;60.69;94861.94;5134925;27;1045;-56
2023/05/29 12:44:03;;;;;;;;;;;;;;;22.36;63.63;94859.56;5135026;27;953;-56
2023/05/29 12:46:35;;;;;;;;;;;;;;;22.31;63.15;94862.22;5135124;27;1005;-56
2023/05/29 12:49:11;;;;;;;;;;;;;;;22.33;61.72;94862.78;5135072;27;1906;-56
2023/05/29 12:51:40;;;;;;;;;;;;;;;22.36;61.84;94858.75;5135043;27;1247;-56
2023/05/29 12:54:05;;;;;;;;;;;;;;;22.28;63.59;94865.41;5135208;27;965;-56
2023/05/29 12:57:05;;;;;;;;;;;;;;;22.69;61.87;94866.22;5110984;27;1169;-57